Time;durP1;ratioP1;P1;durP2;ratioP2;P2;SDS_P1;SDS_P2;PMS_P1;PMS_P2;Temp;Humidity;BMP_temperature;BMP_pressure;BME280_temperature;BME280_humidity;BME280_pressure;Samples;Min_cycle;Max_cycle;Signal;HPM_P1;HPM_P2
2022/08/12 00:42:57;;;;;;;7.50;3.95;;;;;;;16.47;60.82;96474.63;5033490;28;20152;-79
2022/08/12 00:45:24;;;;;;;8.25;3.88;;;;;;;16.42;60.66;96473.72;5032924;28;20373;-80
2022/08/12 00:47:53;;;;;;;7.57;3.67;;;;;;;16.39;60.27;96474.44;5032776;28;20045;-79
2022/08/12 00:50:21;;;;;;;9.63;4.22;;;;;;;16.34;60.48;96476.63;5013422;28;20061;-79
2022/08/12 00:52:50;;;;;;;8.95;3.65;;;;;;;16.30;60.70;96476.56;5012705;28;20608;-78
2022/08/12 00:55:18;;;;;;;7.05;3.83;;;;;;;16.25;60.53;96474.06;5012013;28;20053;-79
2022/08/12 00:57:49;;;;;;;9.02;3.80;;;;;;;16.23;61.07;96475.56;5012658;28;20049;-78
2022/08/12 01:00:18;;;;;;;8.40;3.72;;;;;;;16.15;61.27;96475.38;5011816;28;20128;-78
2022/08/12 01:02:47;;;;;;;8.52;4.15;;;;;;;16.13;61.82;96482.34;5011672;28;20054;-79
2022/08/12 01:13:33;;;;;;;7.80;3.80;;;;;;;15.94;62.83;96477.53;5011439;28;20053;-79
2022/08/12 01:16:02;;;;;;;6.90;3.20;;;;;;;15.95;62.73;96475.56;5011930;28;20056;-79
2022/08/12 01:18:32;;;;;;;7.63;3.75;;;;;;;15.96;63.14;96482.66;5014593;28;20099;-79
2022/08/12 01:21:10;;;;;;;9.10;3.92;;;;;;;15.98;62.43;96474.88;5027205;28;20049;-79
2022/08/12 01:24:07;;;;;;;7.20;3.70;;;;;;;15.94;62.61;96473.97;5031053;28;20445;-78
2022/08/12 01:26:39;;;;;;;6.25;3.50;;;;;;;15.91;62.70;96464.47;5031326;28;20056;-79
2022/08/12 01:29:09;;;;;;;8.18;3.67;;;;;;;15.85;62.56;96466.69;5030567;28;20421;-79
2022/08/12 01:31:37;;;;;;;6.78;3.97;;;;;;;15.80;63.13;96463.38;5031527;28;20049;-78
2022/08/12 01:34:06;;;;;;;6.57;4.05;;;;;;;15.79;63.56;96462.59;5030677;28;20091;-79
2022/08/12 01:36:39;;;;;;;7.88;4.13;;;;;;;15.74;62.83;96465.59;5031033;28;20041;-78
2022/08/12 01:39:06;;;;;;;;;;;;;;;15.65;63.23;96468.47;5030904;28;20053;-78
2022/08/12 01:41:41;;;;;;;6.03;3.58;;;;;;;15.57;63.23;96469.38;5031007;28;19921;-79
2022/08/12 01:44:10;;;;;;;7.22;3.67;;;;;;;15.57;63.72;96463.09;5030569;28;20049;-78
2022/08/12 01:46:48;;;;;;;6.18;3.97;;;;;;;15.56;64.15;96456.00;5031060;28;20053;-79
2022/08/12 01:49:35;;;;;;;8.38;4.38;;;;;;;15.53;64.35;96464.94;5021658;28;20054;-78
2022/08/12 01:52:03;;;;;;;6.93;3.88;;;;;;;15.55;64.60;96457.94;5030729;28;20049;-79
2022/08/12 01:54:37;;;;;;;5.63;3.05;;;;;;;15.50;64.18;96460.91;5030708;28;20083;-80
2022/08/12 01:57:10;;;;;;;7.90;3.97;;;;;;;15.48;64.68;96462.44;5019247;28;20069;-79
2022/08/12 01:59:55;;;;;;;6.78;4.00;;;;;;;15.40;64.68;96455.94;5030706;28;20077;-78
2022/08/12 02:02:27;;;;;;;6.03;3.65;;;;;;;15.30;65.07;96446.25;5030135;28;20064;-78
2022/08/12 02:11:17;;;;;;;7.43;3.92;;;;;;;15.34;65.68;96441.63;5030376;28;20056;-78
2022/08/12 02:14:09;;;;;;;6.15;3.95;;;;;;;15.31;65.42;96445.09;5030271;28;20091;-80
2022/08/12 02:16:46;;;;;;;5.82;3.80;;;;;;;15.26;65.79;96450.00;5021061;28;20414;-79
2022/08/12 02:19:27;;;;;;;6.93;3.50;;;;;;;15.21;66.32;96439.28;5020312;28;20053;-78
2022/08/12 02:22:14;;;;;;;7.90;4.20;;;;;;;15.19;66.68;96438.81;5010596;28;20057;-78
2022/08/12 02:24:44;;;;;;;6.45;3.95;;;;;;;15.07;66.81;96442.38;5010334;28;20045;-79
2022/08/12 02:27:13;;;;;;;6.60;3.80;;;;;;;15.03;66.75;96439.50;5010526;28;20050;-78
2022/08/12 02:29:41;;;;;;;5.75;3.95;;;;;;;14.99;66.76;96435.09;5011012;28;20045;-80
2022/08/12 02:32:09;;;;;;;7.53;3.80;;;;;;;14.95;66.83;96434.97;5010178;28;20046;-78
2022/08/12 02:34:37;;;;;;;7.60;4.65;;;;;;;14.98;67.06;96431.56;5010371;28;20137;-79
2022/08/12 02:37:04;;;;;;;6.22;4.35;;;;;;;15.04;66.76;96427.41;5010186;28;20050;-79
2022/08/12 02:39:34;;;;;;;7.03;4.57;;;;;;;15.08;66.32;96425.56;5010617;28;20429;-78
2022/08/12 02:42:03;;;;;;;7.75;4.38;;;;;;;15.10;66.15;96430.72;5010689;28;20050;-80
2022/08/12 02:44:37;;;;;;;6.10;3.90;;;;;;;15.08;65.87;96433.00;5010106;28;20104;-78
2022/08/12 02:47:07;;;;;;;6.13;4.03;;;;;;;15.04;65.96;96437.59;5009991;28;20038;-78
2022/08/12 02:49:38;;;;;;;8.68;4.20;;;;;;;15.05;66.18;96439.19;5014406;28;20053;-79
2022/08/12 02:52:06;;;;;;;6.72;4.00;;;;;;;14.99;66.02;96432.34;5011359;28;20052;-78
2022/08/12 02:54:34;;;;;;;6.22;3.78;;;;;;;14.96;65.66;96427.53;5014399;28;20104;-77
2022/08/12 02:57:01;;;;;;;7.40;3.75;;;;;;;14.99;65.89;96424.13;5016560;28;20502;-79
2022/08/12 02:59:29;;;;;;;5.95;3.80;;;;;;;14.98;65.48;96423.31;5016375;28;20052;-78
2022/08/12 03:02:02;;;;;;;6.25;3.42;;;;;;;15.01;64.79;96427.31;5016475;28;20461;-78
2022/08/12 03:04:36;;;;;;;6.53;3.63;;;;;;;15.08;64.55;96430.25;5016839;28;20096;-79
2022/08/12 03:07:09;;;;;;;8.40;3.92;;;;;;;15.11;64.70;96426.84;5016915;28;20421;-78
2022/08/12 03:09:44;;;;;;;5.57;3.70;;;;;;;15.16;64.92;96423.84;5017704;28;20100;-77
2022/08/12 03:12:12;;;;;;;7.90;4.38;;;;;;;15.22;64.54;96422.47;5016039;28;20132;-78
2022/08/12 03:14:42;;;;;;;7.22;3.53;;;;;;;15.26;64.69;96428.88;5015997;28;20070;-79
2022/08/12 03:17:15;;;;;;;6.63;3.67;;;;;;;15.25;63.64;96423.72;5014196;28;20077;-78
2022/08/12 03:19:44;;;;;;;;;;;;;;;15.23;63.77;96432.28;5022831;28;20057;-79
2022/08/12 03:22:13;;;;;;;5.50;3.40;;;;;;;15.19;63.60;96436.88;5033409;28;19921;-78
2022/08/12 03:24:42;;;;;;;5.32;3.63;;;;;;;15.05;63.94;96433.69;5033396;28;20501;-78
2022/08/12 03:27:11;;;;;;;11.80;4.28;;;;;;;14.92;64.50;96424.69;5032799;28;20125;-79
2022/08/12 03:29:38;;;;;;;6.05;3.40;;;;;;;14.83;65.30;96424.03;5033567;28;20046;-78
2022/08/12 03:32:06;;;;;;;7.68;3.90;;;;;;;14.79;65.26;96437.59;5022386;28;20049;-78
2022/08/12 03:34:36;;;;;;;6.15;3.80;;;;;;;14.74;65.32;96426.88;5032726;28;20041;-79
2022/08/12 03:37:07;;;;;;;6.13;4.10;;;;;;;14.67;65.58;96431.31;5032751;28;20107;-80
2022/08/12 03:39:43;;;;;;;6.70;3.70;;;;;;;14.65;65.86;96422.63;5033273;28;20056;-79
2022/08/12 03:42:20;;;;;;;7.03;3.80;;;;;;;14.59;66.11;96422.84;5032577;28;20050;-79
2022/08/12 04:01:37;;;;;;;6.93;4.35;;;;;;;14.53;68.10;96420.69;5032675;28;20057;-79
2022/08/12 04:04:04;;;;;;;8.38;4.22;;;;;;;14.51;67.42;96415.56;5032088;28;20124;-78
2022/08/12 04:06:31;;;;;;;10.27;4.47;;;;;;;14.51;67.84;96414.75;5031291;28;20049;-78
2022/08/12 04:08:59;;;;;;;6.72;4.28;;;;;;;14.52;67.73;96410.88;5032688;28;20050;-78
2022/08/12 04:14:16;;;;;;;8.88;4.55;;;;;;;14.49;67.73;96417.81;5032119;28;20052;-79
2022/08/12 04:16:43;;;;;;;8.68;4.28;;;;;;;14.44;67.64;96430.94;5032234;28;20049;-79
2022/08/12 04:19:09;;;;;;;7.57;4.38;;;;;;;14.40;67.73;96419.03;5023605;28;20050;-79
2022/08/12 04:21:36;;;;;;;7.53;4.22;;;;;;;14.33;68.23;96430.56;5032485;28;20057;-78
2022/08/12 04:24:05;;;;;;;11.25;4.40;;;;;;;14.29;68.35;96430.44;5031809;28;20053;-78
2022/08/12 04:26:34;;;;;;;9.18;4.40;;;;;;;14.27;68.54;96429.19;5032345;28;20046;-79
2022/08/12 04:29:02;;;;;;;8.40;4.43;;;;;;;14.31;68.92;96433.66;5032162;28;20151;-78
2022/08/12 04:31:34;;;;;;;9.07;4.28;;;;;;;14.39;68.69;96428.41;5031946;28;20044;-79
2022/08/12 04:34:02;;;;;;;6.97;4.38;;;;;;;14.47;68.50;96427.50;5032001;28;20053;-78
2022/08/12 04:36:29;;;;;;;7.28;4.13;;;;;;;14.50;68.33;96429.59;5031771;28;20604;-79
2022/08/12 04:38:55;;;;;;;7.28;4.38;;;;;;;14.55;68.01;96432.91;5032130;28;20047;-79
2022/08/12 04:41:24;;;;;;;6.22;3.97;;;;;;;14.55;67.50;96423.88;5031741;28;20050;-79
2022/08/12 04:43:51;;;;;;;6.45;4.38;;;;;;;14.60;67.89;96429.13;5032012;28;20052;-79
2022/08/12 04:46:17;;;;;;;7.93;3.95;;;;;;;14.67;67.41;96429.38;5031315;28;20082;-79
2022/08/12 04:48:45;;;;;;;14.02;4.47;;;;;;;14.75;66.61;96425.72;5025986;28;20494;-79
2022/08/12 04:51:12;;;;;;;8.57;4.78;;;;;;;14.88;66.82;96415.56;5028873;28;20156;-78
2022/08/12 04:53:40;;;;;;;9.57;4.00;;;;;;;15.00;66.61;96425.72;5031838;28;20053;-79
2022/08/12 04:56:07;;;;;;;6.18;3.83;;;;;;;15.10;66.07;96419.75;5031233;28;20377;-79
2022/08/12 04:58:35;;;;;;;7.53;4.05;;;;;;;15.16;65.10;96423.84;5031555;28;20116;-78
2022/08/12 05:01:02;;;;;;;7.80;4.30;;;;;;;15.22;65.29;96425.22;5031732;28;20049;-79
2022/08/12 05:03:29;;;;;;;7.55;4.35;;;;;;;15.29;65.26;96422.66;5031580;28;20045;-78
2022/08/12 05:05:56;;;;;;;7.22;4.25;;;;;;;15.31;65.27;96420.41;5031116;28;20052;-79
2022/08/12 05:08:25;;;;;;;8.63;4.53;;;;;;;15.31;65.13;96431.38;5031003;28;20172;-79
2022/08/12 05:10:52;;;;;;;6.25;4.03;;;;;;;15.29;65.58;96428.16;5031524;28;20553;-79
2022/08/12 05:13:20;;;;;;;9.88;4.18;;;;;;;15.28;66.41;96432.06;5031950;28;20069;-79
2022/08/12 05:15:49;;;;;;;8.90;4.32;;;;;;;15.34;66.90;96438.09;5037599;28;20045;-78
2022/08/12 05:18:16;;;;;;;5.53;3.53;;;;;;;15.37;66.99;96440.94;5035546;28;20041;-78
2022/08/12 05:20:42;;;;;;;6.00;3.75;;;;;;;15.43;66.95;96454.44;5016047;28;20061;-79
2022/08/12 05:23:10;;;;;;;7.25;3.80;;;;;;;15.44;66.74;96448.59;5016448;28;20081;-78
2022/08/12 05:25:37;;;;;;;8.05;3.90;;;;;;;15.52;66.40;96449.63;5017026;28;20406;-79
2022/08/12 05:28:05;;;;;;;10.32;3.70;;;;;;;15.56;66.25;96448.56;5015750;28;20060;-78
2022/08/12 05:30:33;;;;;;;7.22;3.75;;;;;;;15.67;65.72;96446.16;5020494;28;20072;-79
2022/08/12 05:33:04;;;;;;;7.78;3.80;;;;;;;15.79;64.73;96445.31;5031710;28;20057;-78
2022/08/12 05:35:30;;;;;;;16.88;4.13;;;;;;;15.92;64.68;96455.09;5030913;28;20124;-78
2022/08/12 05:40:37;;;;;;;7.43;3.60;;;;;;;16.12;64.39;96447.78;5030547;28;20124;-79
2022/08/12 05:43:05;;;;;;;7.30;3.47;;;;;;;16.17;64.69;96455.78;5030370;28;20046;-79
2022/08/12 05:45:31;;;;;;;8.95;3.72;;;;;;;16.22;63.15;96462.97;5031315;28;20049;-78
2022/08/12 05:47:58;;;;;;;6.63;3.05;;;;;;;16.28;63.38;96456.06;5031185;28;20050;-79
2022/08/12 05:50:26;;;;;;;8.52;4.00;;;;;;;16.35;63.79;96468.06;5015732;28;20053;-81
2022/08/12 05:52:52;;;;;;;14.52;4.13;;;;;;;16.41;63.70;96466.63;5011397;28;20042;-79
2022/08/12 05:55:19;;;;;;;8.68;4.35;;;;;;;16.53;63.10;96467.72;5010584;28;20080;-79
2022/08/12 05:57:52;;;;;;;8.07;3.67;;;;;;;16.61;62.19;96458.50;5011371;28;20080;-78
2022/08/12 06:00:19;;;;;;;5.82;3.30;;;;;;;16.72;62.07;96465.09;5011351;28;20433;-79
2022/08/12 06:02:46;;;;;;;6.60;3.72;;;;;;;16.82;60.73;96464.56;5011356;28;20054;-79
2022/08/12 06:05:13;;;;;;;6.10;3.70;;;;;;;16.93;60.87;96465.63;5010766;28;20145;-79
2022/08/12 06:07:44;;;;;;;6.53;3.60;;;;;;;17.02;60.31;96461.88;5010377;28;20054;-78
2022/08/12 06:10:10;;;;;;;7.38;3.35;;;;;;;17.13;60.20;96466.50;5001237;28;20544;-79
2022/08/12 06:12:37;;;;;;;6.80;3.60;;;;;;;17.19;60.16;96467.00;5010676;28;20501;-78
2022/08/12 06:15:04;;;;;;;6.65;3.72;;;;;;;17.21;58.33;96464.69;5009544;28;20061;-79
2022/08/12 06:17:30;;;;;;;6.05;3.22;;;;;;;17.35;58.49;96454.00;5011271;28;20053;-79
2022/08/12 06:19:57;;;;;;;7.47;3.03;;;;;;;17.47;59.39;96456.63;5022835;28;20441;-79
2022/08/12 06:22:25;;;;;;;7.10;3.22;;;;;;;17.59;59.76;96457.66;5035269;28;20046;-82
2022/08/12 06:24:53;;;;;;;7.50;3.20;;;;;;;17.59;57.83;96463.16;5025854;28;20076;-81
2022/08/12 06:29:45;;;;;;;4.50;2.28;;;;;;;17.73;56.73;96458.00;5182411;23;20046;-82
2022/08/12 06:32:14;;;;;;;9.77;4.47;;;;;;;17.87;57.00;96463.81;4999878;28;20042;-83
2022/08/12 06:34:40;;;;;;;5.18;2.58;;;;;;;17.90;55.88;96462.25;5018938;28;20050;-84
2022/08/12 06:37:09;;;;;;;9.43;4.43;;;;;;;17.99;56.57;96471.91;5017711;28;20093;-80
2022/08/12 06:39:36;;;;;;;5.35;2.90;;;;;;;18.17;57.14;96475.03;4971861;28;20050;-83
2022/08/12 06:44:49;;;;;;;5.78;2.42;;;;;;;18.32;55.59;96462.28;5017276;28;20073;-82
2022/08/12 06:47:18;;;;;;;11.80;5.30;;;;;;;18.45;56.00;96471.22;5016523;28;20058;-83
2022/08/12 06:49:44;;;;;;;6.78;3.00;;;;;;;18.42;54.32;96461.69;5013791;28;20054;-84
2022/08/12 06:52:11;;;;;;;8.25;4.28;;;;;;;18.50;53.71;96462.63;5023140;23;20054;-80
2022/08/12 06:54:38;;;;;;;7.38;2.88;;;;;;;18.58;53.08;96466.31;5017119;28;20122;-86
2022/08/12 06:57:06;;;;;;;6.68;3.03;;;;;;;18.58;52.87;96466.31;5027926;28;20042;-80
2022/08/12 06:59:34;;;;;;;5.35;2.83;;;;;;;18.67;52.41;96461.34;5017615;28;20046;-79
2022/08/12 07:02:00;;;;;;;9.75;3.08;;;;;;;18.70;52.31;96461.44;5015093;28;20128;-79
2022/08/12 07:04:27;;;;;;;4.93;2.92;;;;;;;18.72;51.78;96474.88;5028515;28;20053;-78
2022/08/12 07:06:54;;;;;;;5.70;3.35;;;;;;;18.74;51.85;96472.53;5013660;28;20049;-78
2022/08/12 07:12:15;;;;;;;7.53;3.78;;;;;;;18.81;51.44;96472.66;5331739;23;20064;-82
2022/08/12 07:14:42;;;;;;;5.90;3.13;;;;;;;18.96;51.85;96466.22;5018778;28;20069;-81
2022/08/12 07:17:08;;;;;;;7.07;3.30;;;;;;;19.04;51.78;96469.88;5020898;28;20076;-82
2022/08/12 07:19:35;;;;;;;7.90;2.92;;;;;;;19.00;51.31;96466.25;5018824;28;20050;-81
2022/08/12 07:22:05;;;;;;;9.98;3.60;;;;;;;19.12;51.36;96476.31;5017155;28;20049;-76
2022/08/12 07:24:31;;;;;;;6.13;2.85;;;;;;;19.20;50.99;96462.25;5004992;28;20050;-82
2022/08/12 07:26:58;;;;;;;6.40;2.70;;;;;;;19.20;50.80;96466.97;5000472;28;20047;-81
2022/08/12 07:29:27;;;;;;;5.75;2.70;;;;;;;19.34;51.02;96467.19;4999065;28;20046;-81
2022/08/12 07:31:56;;;;;;;6.28;2.80;;;;;;;19.44;50.59;96469.31;5003487;28;20094;-82
2022/08/12 07:34:22;;;;;;;4.68;2.40;;;;;;;19.55;50.77;96466.69;5012923;28;20065;-87
2022/08/12 07:36:49;;;;;;;5.03;2.50;;;;;;;19.66;50.32;96464.91;5018447;28;20041;-84
2022/08/12 07:39:16;;;;;;;5.78;2.60;;;;;;;19.81;49.80;96457.59;4997108;28;20046;-81
2022/08/12 07:44:12;;;;;;;6.90;3.30;;;;;;;20.14;49.19;96469.84;5010038;23;20058;-78
2022/08/12 07:46:42;;;;;;;7.65;3.28;;;;;;;20.34;50.09;96471.25;5015541;28;20137;-79
2022/08/12 07:49:11;;;;;;;8.32;3.17;;;;;;;20.59;49.78;96469.56;5026849;28;20061;-81
2022/08/12 07:51:38;;;;;;;6.05;2.75;;;;;;;20.83;48.37;96473.75;5024627;28;20050;-81
2022/08/12 07:54:08;;;;;;;7.45;3.10;;;;;;;21.42;47.14;96468.31;5016364;28;20042;-77
2022/08/12 07:56:35;;;;;;;6.20;2.85;;;;;;;21.97;46.18;96472.94;5015705;28;20069;-78
2022/08/12 07:59:02;;;;;;;8.25;2.53;;;;;;;22.32;44.07;96475.91;5014127;28;20061;-76
2022/08/12 08:01:31;;;;;;;7.28;3.05;;;;;;;22.91;44.58;96472.88;5015044;28;20667;-82
2022/08/12 08:06:45;;;;;;;6.28;2.92;;;;;;;23.37;42.34;96480.41;5014346;28;20053;-79
2022/08/12 08:09:14;;;;;;;5.40;2.58;;;;;;;23.65;41.90;96462.94;5013976;28;20046;-79
2022/08/12 08:14:27;;;;;;;4.60;2.67;;;;;;;23.91;41.06;96470.81;5025960;28;20104;-85
2022/08/12 08:16:55;;;;;;;9.98;2.40;;;;;;;24.00;41.02;96462.00;5029846;28;20038;-84
2022/08/12 08:19:24;;;;;;;5.95;2.40;;;;;;;24.35;40.43;96471.41;5032025;28;20062;-87
2022/08/12 08:21:52;;;;;;;4.18;2.33;;;;;;;24.47;39.46;96468.97;5031544;28;20089;-87
2022/08/12 08:26:47;;;;;;;5.15;2.10;;;;;;;24.67;41.20;96466.47;5172821;23;20053;-85
2022/08/12 08:29:14;;;;;;;6.53;2.72;;;;;;;24.64;40.34;96469.28;5034624;28;20128;-83
2022/08/12 08:31:42;;;;;;;5.15;2.22;;;;;;;24.50;39.27;96475.72;5024900;28;20153;-80
2022/08/12 08:34:09;;;;;;;8.30;2.17;;;;;;;24.48;38.71;96472.53;5023942;28;20050;-80
2022/08/12 08:36:38;;;;;;;7.20;2.00;;;;;;;24.39;38.47;96469.44;5032212;28;20050;-80
2022/08/12 08:39:05;;;;;;;6.10;2.40;;;;;;;24.30;39.48;96469.03;5020513;28;20078;-82
2022/08/12 08:44:15;;;;;;;15.38;3.30;;;;;;;24.37;39.19;96460.69;5017691;28;20068;-79
2022/08/12 08:46:43;;;;;;;3.90;2.30;;;;;;;24.25;39.56;96461.91;5013419;28;20046;-77
2022/08/12 08:49:10;;;;;;;3.90;2.20;;;;;;;24.01;38.54;96463.59;5019037;28;20076;-85
2022/08/12 08:51:39;;;;;;;4.05;2.53;;;;;;;23.84;39.28;96453.34;5027899;28;20046;-82
2022/08/12 08:54:07;;;;;;;5.30;2.35;;;;;;;23.89;39.98;96466.81;5124208;23;20053;-84
2022/08/12 08:56:42;;;;;;;4.07;2.63;;;;;;;23.84;39.56;96465.25;5010020;28;20048;-84
2022/08/12 08:59:10;;;;;;;11.45;4.25;;;;;;;23.98;40.18;96469.97;5011021;28;20085;-83
2022/08/12 09:01:37;;;;;;;7.03;2.90;;;;;;;24.02;40.66;96467.19;5112283;23;20062;-83
2022/08/12 09:04:04;;;;;;;4.30;2.40;;;;;;;23.95;40.21;96471.56;5300563;23;20072;-78
2022/08/12 09:06:31;;;;;;;10.35;3.40;;;;;;;23.84;39.81;96472.78;5028478;28;20079;-84
2022/08/12 09:08:59;;;;;;;7.65;2.60;;;;;;;23.85;40.65;96471.59;5022904;28;20099;-79
2022/08/12 09:14:10;;;;;;;7.88;2.70;;;;;;;23.66;41.21;96479.19;5012597;28;20053;-80
2022/08/12 09:16:37;;;;;;;6.75;2.78;;;;;;;23.65;40.43;96480.41;5015389;28;20050;-79
2022/08/12 09:19:04;;;;;;;8.30;3.47;;;;;;;23.42;39.60;96474.44;5018324;28;20049;-80
2022/08/12 09:21:31;;;;;;;7.88;3.05;;;;;;;23.23;40.88;96477.63;5016075;28;20046;-79
2022/08/12 09:23:59;;;;;;;5.68;2.60;;;;;;;23.13;41.16;96482.00;5013785;28;20042;-80
2022/08/12 09:26:27;;;;;;;7.15;2.28;;;;;;;23.05;41.94;96480.41;5024923;28;20048;-80
2022/08/12 09:28:54;;;;;;;4.95;2.30;;;;;;;23.01;41.43;96474.84;5015657;28;20060;-85
2022/08/12 09:31:20;;;;;;;6.82;2.47;;;;;;;22.73;40.75;96474.81;5011390;28;20042;-77
2022/08/12 09:33:47;;;;;;;5.78;2.50;;;;;;;22.77;42.68;96470.84;5013473;28;20109;-80
2022/08/12 09:36:14;;;;;;;5.22;2.60;;;;;;;22.57;41.88;96483.50;5016836;28;20054;-79
2022/08/12 09:38:42;;;;;;;4.68;2.55;;;;;;;22.59;41.58;96470.00;5011664;28;20421;-80
2022/08/12 09:41:10;;;;;;;7.45;2.92;;;;;;;22.61;41.33;96479.56;5014737;28;20050;-77
2022/08/12 09:46:23;;;;;;;8.43;2.90;;;;;;;22.62;43.19;96475.59;5010745;28;21904;-81
2022/08/12 09:48:49;;;;;;;6.28;2.15;;;;;;;22.58;42.25;96469.22;5015733;28;20140;-78
2022/08/12 09:51:16;;;;;;;7.20;2.60;;;;;;;22.49;41.81;96465.22;5014384;28;20060;-80
2022/08/12 09:53:42;;;;;;;3.67;2.15;;;;;;;22.48;41.73;96478.31;5014733;28;20053;-80
2022/08/12 09:56:12;;;;;;;4.30;2.30;;;;;;;22.65;42.91;96477.56;5014394;28;20056;-80
2022/08/12 09:58:40;;;;;;;4.40;2.30;;;;;;;22.73;41.61;96467.28;5015399;28;20524;-81
2022/08/12 10:01:07;;;;;;;6.07;2.63;;;;;;;23.03;42.07;96466.94;5013638;28;20132;-78
2022/08/12 10:03:36;;;;;;;9.35;2.80;;;;;;;23.39;40.48;96455.81;5015154;28;20038;-80
2022/08/12 10:06:05;;;;;;;4.25;2.35;;;;;;;23.66;41.92;96456.19;5013811;28;20185;-78
2022/08/12 10:08:34;;;;;;;7.03;2.58;;;;;;;24.06;40.66;96460.38;5015154;28;20046;-80
2022/08/12 10:13:49;;;;;;;6.13;2.05;;;;;;;24.33;39.15;96451.56;5023276;28;20469;-81
2022/08/12 10:16:19;;;;;;;3.53;1.83;;;;;;;24.49;38.77;96449.09;5016800;28;20100;-81
2022/08/12 10:18:47;;;;;;;4.90;2.33;;;;;;;24.69;37.98;96441.81;5012596;28;20132;-82
2022/08/12 10:21:16;;;;;;;5.65;2.42;;;;;;;24.91;37.73;96441.66;4995443;28;20398;-80
2022/08/12 10:23:45;;;;;;;5.05;1.85;;;;;;;24.89;37.86;96449.63;4996047;28;20054;-79
2022/08/12 10:31:57;;;;;;;3.08;1.70;;;;;;;24.95;38.30;96445.19;4996226;28;20508;-85
2022/08/12 10:34:25;;;;;;;5.07;1.95;;;;;;;24.97;36.62;96437.22;5008527;28;20050;-81
2022/08/12 10:36:54;;;;;;;4.70;1.88;;;;;;;24.96;35.61;96439.22;5003740;28;20058;-83
2022/08/12 10:39:22;;;;;;;6.70;1.67;;;;;;;24.94;35.75;96440.81;5004235;28;20046;-83
2022/08/12 10:44:35;;;;;;;5.15;1.52;;;;;;;25.09;36.23;96433.16;5004153;28;20517;-84
2022/08/12 10:47:03;;;;;;;5.07;1.50;;;;;;;25.08;34.25;96434.38;5003644;28;20050;-76
2022/08/12 10:49:33;;;;;;;2.53;1.60;;;;;;;24.87;34.90;96436.09;5015917;28;20097;-82
2022/08/12 10:52:01;;;;;;;5.95;1.80;;;;;;;24.79;35.78;96433.78;5006296;28;20473;-82
2022/08/12 10:54:28;;;;;;;4.88;1.73;;;;;;;24.86;35.88;96428.16;5004101;28;20049;-83
2022/08/12 10:56:59;;;;;;;4.55;1.83;;;;;;;24.77;35.32;96430.63;5006836;28;20034;-86
2022/08/12 10:59:27;;;;;;;8.40;2.50;;;;;;;24.53;35.67;96424.00;5042088;23;20041;-75
2022/08/12 11:01:56;;;;;;;7.55;2.45;;;;;;;24.16;36.78;96420.59;5009891;28;20073;-76
2022/08/12 11:04:23;;;;;;;9.55;2.50;;;;;;;24.26;37.63;96418.19;5009522;28;20053;-75
2022/08/12 11:06:52;;;;;;;9.13;2.55;;;;;;;24.49;37.00;96417.69;5009809;28;20054;-75
2022/08/12 11:09:20;;;;;;;10.90;3.20;;;;;;;24.76;35.39;96415.13;5009754;28;20046;-75
2022/08/12 11:11:48;;;;;;;5.90;1.90;;;;;;;24.83;35.43;96413.06;5010116;28;20046;-76
2022/08/12 11:14:17;;;;;;;8.90;2.30;;;;;;;24.96;35.13;96405.78;5008942;28;20127;-76
2022/08/12 11:16:44;;;;;;;4.93;1.70;;;;;;;24.99;34.53;96404.16;5013440;28;20042;-76
2022/08/12 11:19:12;;;;;;;9.93;2.78;;;;;;;25.06;35.69;96393.00;5013149;28;20077;-76
2022/08/12 11:21:39;;;;;;;6.90;1.90;;;;;;;25.21;34.19;96404.78;5013694;28;20417;-77
2022/08/12 11:24:06;;;;;;;9.20;2.55;;;;;;;25.21;34.96;96388.88;5012973;28;20049;-76
2022/08/12 11:26:33;;;;;;;9.77;2.50;;;;;;;25.12;34.85;96396.16;5013492;28;20072;-76
2022/08/12 11:29:00;;;;;;;10.43;2.85;;;;;;;25.23;34.86;96392.03;5013369;28;20074;-76
2022/08/12 11:31:26;;;;;;;10.25;2.60;;;;;;;25.27;34.85;96385.63;5012663;28;20042;-76
2022/08/12 11:33:53;;;;;;;10.80;2.28;;;;;;;25.30;34.53;96390.38;5013073;28;20050;-76
2022/08/12 11:36:20;;;;;;;6.22;1.83;;;;;;;25.27;34.27;96391.19;5012762;28;20147;-76
2022/08/12 11:38:47;;;;;;;6.82;1.85;;;;;;;25.07;33.02;96383.44;5013975;28;20053;-78
2022/08/12 11:41:13;;;;;;;6.90;2.10;;;;;;;24.95;32.31;96381.94;5014159;28;20060;-82
2022/08/12 11:43:40;;;;;;;8.82;1.90;;;;;;;24.81;34.10;96379.25;5023926;28;20045;-82
2022/08/12 11:46:07;;;;;;;3.42;1.30;;;;;;;24.70;34.77;96375.78;5027467;28;20050;-80
2022/08/12 11:48:38;;;;;;;2.75;1.13;;;;;;;24.85;32.66;96376.44;5040611;28;20041;-81
2022/08/12 11:51:05;;;;;;;2.70;1.15;;;;;;;24.97;33.26;96378.72;5034583;28;20049;-81
2022/08/12 11:53:33;;;;;;;10.82;2.08;;;;;;;25.08;33.47;96371.09;5035342;28;20054;-80
2022/08/12 11:56:00;;;;;;;6.78;2.00;;;;;;;25.36;33.25;96369.22;5023791;28;20092;-81
2022/08/12 11:58:27;;;;;;;7.78;2.15;;;;;;;25.52;33.47;96363.84;5015496;28;20098;-84
2022/08/12 12:00:53;;;;;;;5.13;1.70;;;;;;;25.79;33.13;96371.53;5013903;28;20497;-84
2022/08/12 12:03:20;;;;;;;6.47;2.20;;;;;;;25.73;34.71;96374.75;5013198;28;20046;-84
2022/08/12 12:05:46;;;;;;;7.43;2.00;;;;;;;25.86;33.62;96377.03;5015524;28;20054;-83
2022/08/12 12:08:20;;;;;;;8.85;2.72;;;;;;;25.87;32.66;96367.47;5013671;28;20054;-85
2022/08/12 12:10:48;;;;;;;7.45;2.08;;;;;;;26.09;33.99;96370.75;5014608;28;20137;-85
2022/08/12 12:13:15;;;;;;;11.80;3.10;;;;;;;26.10;33.34;96367.56;5012309;28;20058;-85
2022/08/12 12:15:42;;;;;;;8.88;1.92;;;;;;;26.13;32.52;96357.56;5012610;28;20056;-86
2022/08/12 12:18:20;;;;;;;4.20;1.60;;;;;;;26.12;32.77;96356.75;5013075;28;20049;-87
2022/08/12 12:20:46;;;;;;;4.93;1.35;;;;;;;26.12;32.70;96356.75;5014506;28;20070;-87
2022/08/12 12:23:13;;;;;;;4.60;1.20;;;;;;;26.01;32.41;96356.91;5014923;28;20061;-85
2022/08/12 12:25:39;;;;;;;4.63;1.60;;;;;;;25.98;33.23;96356.94;5016761;28;20053;-84
2022/08/12 12:28:07;;;;;;;6.93;2.20;;;;;;;25.89;31.86;96359.44;5014479;28;20068;-84
2022/08/12 12:30:34;;;;;;;7.28;1.83;;;;;;;25.72;30.87;96362.03;5015757;28;20038;-85
2022/08/12 12:33:01;;;;;;;5.82;1.80;;;;;;;25.13;31.19;96351.13;5018410;28;20046;-81
2022/08/12 12:35:27;;;;;;;2.13;1.27;;;;;;;25.25;32.06;96345.03;5083531;23;20545;-84
2022/08/12 12:38:00;;;;;;;2.40;1.25;;;;;;;25.37;31.53;96351.28;5011876;28;20050;-82
2022/08/12 12:40:27;;;;;;;;;;;;;;;25.55;32.18;96342.72;5011398;28;20030;-81
2022/08/12 12:42:55;;;;;;;2.58;0.90;;;;;;;25.57;30.79;96346.66;5017239;28;19928;-82
2022/08/12 12:45:23;;;;;;;1.40;0.80;;;;;;;25.70;31.46;96338.56;5018544;28;20057;-82
2022/08/12 12:47:57;;;;;;;3.13;0.95;;;;;;;25.65;31.19;96333.44;5016879;28;20043;-85
2022/08/12 12:50:25;;;;;;;2.63;1.20;;;;;;;25.51;33.11;96337.97;5014976;28;20042;-81
2022/08/12 12:52:52;;;;;;;2.92;1.60;;;;;;;25.65;32.27;96323.06;5004770;28;20414;-79
2022/08/12 12:55:19;;;;;;;3.83;1.52;;;;;;;25.74;32.38;96323.41;5026411;23;20048;-82
2022/08/12 12:57:47;;;;;;;26.67;9.65;;;;;;;25.88;31.54;96324.41;5101355;23;20093;-79
2022/08/12 13:00:15;;;;;;;5.72;1.95;;;;;;;26.02;31.90;96315.84;5035778;23;20038;-81
2022/08/12 13:02:51;;;;;;;9.25;2.88;;;;;;;25.96;31.38;96323.09;5050230;23;20034;-78
2022/08/12 13:05:18;;;;;;;4.15;1.67;;;;;;;26.17;31.74;96313.66;5000714;28;20118;-81
2022/08/12 13:10:11;;;;;;;8.75;1.92;;;;;;;26.27;29.43;96324.66;5039322;23;20532;-85
2022/08/12 13:12:41;;;;;;;6.85;2.00;;;;;;;26.26;29.28;96323.06;5009646;28;20046;-85
2022/08/12 13:15:14;;;;;;;6.65;1.92;;;;;;;26.01;29.81;96312.28;5001793;28;20060;-84
2022/08/12 13:17:41;;;;;;;5.10;1.48;;;;;;;25.88;31.26;96324.41;5000846;28;20598;-85
2022/08/12 13:20:12;;;;;;;6.97;1.95;;;;;;;25.92;30.98;96314.78;5016556;28;20409;-84
2022/08/12 13:22:38;;;;;;;6.90;1.90;;;;;;;25.96;32.12;96321.09;5020258;28;20176;-85
2022/08/12 13:25:06;;;;;;;8.05;1.75;;;;;;;25.92;30.24;96319.56;5019042;28;20370;-83
2022/08/12 13:27:36;;;;;;;6.70;2.08;;;;;;;25.93;30.14;96315.56;5012614;28;20523;-85
2022/08/12 13:30:08;;;;;;;6.85;1.83;;;;;;;25.92;29.68;96311.19;5010869;28;20051;-84
2022/08/12 13:32:36;;;;;;;5.05;1.70;;;;;;;25.95;29.10;96313.94;5011517;28;20077;-84
2022/08/12 13:35:02;;;;;;;6.05;1.45;;;;;;;25.80;29.33;96309.78;5010763;28;20050;-84
2022/08/12 13:37:30;;;;;;;7.78;2.05;;;;;;;25.90;29.67;96311.63;5011161;28;20042;-84
2022/08/12 13:39:57;;;;;;;6.60;1.83;;;;;;;25.92;30.88;96314.00;5011472;28;20050;-84